Terminal Aerodrome Forecast
Issued by NWS Tampa Bay Area, FL

Home | Current Version | Previous Version | Text Only | Print | Product List | Glossary On
Versions: 1 2 3 4 5 6 7 8 9 10 11 12 13
000
FTUS42 KTBW 280500
TAFSRQ
TAF
KSRQ 280537Z 2806/2906 26005KT P6SM FEW025 SCT250
     FM281000 26005KT P6SM VCTS SCT025CB SCT250
     FM281600 26012G18KT P6SM FEW035 SCT250
     FM282300 25012KT P6SM FEW030 SCT250=

USA.gov is the U.S. government's official web portal to all federal, state and local government web resources and services.